sensor_id;sensor_type;location;lat;lon;timestamp;pressure;altitude;pressure_sealevel;temperature;humidity
58698;BME280;44475;53.206;-6.106;2023-02-21T00:00:31;101788.19;;;23.98;45.61
58698;BME280;44475;53.206;-6.106;2023-02-21T00:03:16;101787.09;;;23.76;45.87
58698;BME280;44475;53.206;-6.106;2023-02-21T00:06:01;101786.78;;;23.93;45.50
58698;BME280;44475;53.206;-6.106;2023-02-21T00:08:46;101792.78;;;23.98;45.32
58698;BME280;44475;53.206;-6.106;2023-02-21T00:11:31;101795.59;;;23.85;45.52
58698;BME280;44475;53.206;-6.106;2023-02-21T00:14:16;101789.84;;;23.76;46.12
58698;BME280;44475;53.206;-6.106;2023-02-21T00:17:01;101790.94;;;23.74;45.75
58698;BME280;44475;53.206;-6.106;2023-02-21T00:19:45;101795.09;;;23.91;45.52
58698;BME280;44475;53.206;-6.106;2023-02-21T00:22:30;101797.34;;;23.86;45.77
58698;BME280;44475;53.206;-6.106;2023-02-21T00:25:15;101792.63;;;23.88;45.41
58698;BME280;44475;53.206;-6.106;2023-02-21T00:28:00;101791.03;;;23.97;45.33
58698;BME280;44475;53.206;-6.106;2023-02-21T00:30:45;101794.75;;;23.96;45.55
58698;BME280;44475;53.206;-6.106;2023-02-21T00:33:30;101787.16;;;23.99;45.48
58698;BME280;44475;53.206;-6.106;2023-02-21T00:36:16;101791.44;;;24.04;45.30
58698;BME280;44475;53.206;-6.106;2023-02-21T00:39:00;101791.31;;;24.05;45.32
58698;BME280;44475;53.206;-6.106;2023-02-21T00:41:45;101788.03;;;24.00;45.37
58698;BME280;44475;53.206;-6.106;2023-02-21T00:44:31;101784.09;;;24.04;45.25
58698;BME280;44475;53.206;-6.106;2023-02-21T00:47:15;101786.00;;;23.91;45.50
58698;BME280;44475;53.206;-6.106;2023-02-21T00:50:00;101782.06;;;23.95;45.25
58698;BME280;44475;53.206;-6.106;2023-02-21T00:52:45;101783.16;;;23.92;45.40
58698;BME280;44475;53.206;-6.106;2023-02-21T00:55:30;101781.69;;;23.99;45.30
58698;BME280;44475;53.206;-6.106;2023-02-21T00:58:15;101779.31;;;23.95;45.18
58698;BME280;44475;53.206;-6.106;2023-02-21T01:01:00;101774.19;;;23.90;45.74
58698;BME280;44475;53.206;-6.106;2023-02-21T01:03:46;101776.72;;;23.93;45.33
58698;BME280;44475;53.206;-6.106;2023-02-21T01:06:30;101759.63;;;23.89;45.55
58698;BME280;44475;53.206;-6.106;2023-02-21T01:09:15;101762.38;;;23.89;45.52
58698;BME280;44475;53.206;-6.106;2023-02-21T01:12:00;101752.84;;;23.95;45.46
58698;BME280;44475;53.206;-6.106;2023-02-21T01:14:45;101755.28;;;23.87;45.57
58698;BME280;44475;53.206;-6.106;2023-02-21T01:17:30;101751.19;;;23.93;45.53
58698;BME280;44475;53.206;-6.106;2023-02-21T01:20:15;101753.19;;;23.91;45.39
58698;BME280;44475;53.206;-6.106;2023-02-21T01:23:00;101744.69;;;23.82;45.69
58698;BME280;44475;53.206;-6.106;2023-02-21T01:25:44;101743.22;;;23.89;45.63
58698;BME280;44475;53.206;-6.106;2023-02-21T01:28:29;101737.47;;;23.81;45.58
58698;BME280;44475;53.206;-6.106;2023-02-21T01:31:19;101741.50;;;24.00;45.49
58698;BME280;44475;53.206;-6.106;2023-02-21T01:34:05;101734.78;;;23.93;45.51
58698;BME280;44475;53.206;-6.106;2023-02-21T01:36:50;101729.06;;;23.96;45.36
58698;BME280;44475;53.206;-6.106;2023-02-21T01:39:35;101724.06;;;23.89;45.66
58698;BME280;44475;53.206;-6.106;2023-02-21T01:42:20;101727.56;;;23.92;45.54
58698;BME280;44475;53.206;-6.106;2023-02-21T01:45:40;101731.16;;;23.92;45.59
58698;BME280;44475;53.206;-6.106;2023-02-21T01:48:27;101721.59;;;23.86;45.68
58698;BME280;44475;53.206;-6.106;2023-02-21T01:51:16;101731.22;;;23.79;45.74
58698;BME280;44475;53.206;-6.106;2023-02-21T01:54:02;101724.03;;;23.78;45.74
58698;BME280;44475;53.206;-6.106;2023-02-21T01:56:48;101729.03;;;23.84;45.67
58698;BME280;44475;53.206;-6.106;2023-02-21T01:59:33;101717.97;;;23.86;45.68
58698;BME280;44475;53.206;-6.106;2023-02-21T02:02:27;101726.09;;;23.99;45.28
58698;BME280;44475;53.206;-6.106;2023-02-21T02:05:14;101719.47;;;23.90;45.60
58698;BME280;44475;53.206;-6.106;2023-02-21T02:07:59;101721.09;;;23.93;45.63
58698;BME280;44475;53.206;-6.106;2023-02-21T02:10:45;101725.69;;;23.92;45.47
58698;BME280;44475;53.206;-6.106;2023-02-21T02:24:37;101713.31;;;23.75;45.96
58698;BME280;44475;53.206;-6.106;2023-02-21T02:35:22;101712.84;;;23.81;45.51
58698;BME280;44475;53.206;-6.106;2023-02-21T02:38:10;101716.09;;;23.86;45.36
58698;BME280;44475;53.206;-6.106;2023-02-21T02:43:26;101696.69;;;23.78;45.55
58698;BME280;44475;53.206;-6.106;2023-02-21T02:45:57;101697.28;;;23.82;45.28
58698;BME280;44475;53.206;-6.106;2023-02-21T02:48:45;101697.94;;;23.85;45.51
58698;BME280;44475;53.206;-6.106;2023-02-21T02:51:14;101702.00;;;23.79;45.59
58698;BME280;44475;53.206;-6.106;2023-02-21T02:53:42;101685.25;;;23.84;45.25
58698;BME280;44475;53.206;-6.106;2023-02-21T02:56:11;101693.94;;;23.78;45.52
58698;BME280;44475;53.206;-6.106;2023-02-21T02:58:53;101684.88;;;23.77;45.43
58698;BME280;44475;53.206;-6.106;2023-02-21T03:12:37;101676.50;;;23.79;45.40
58698;BME280;44475;53.206;-6.106;2023-02-21T03:15:21;101679.50;;;23.76;45.30
58698;BME280;44475;53.206;-6.106;2023-02-21T03:18:15;101680.00;;;23.81;45.28
58698;BME280;44475;53.206;-6.106;2023-02-21T03:20:45;101681.97;;;23.79;45.20
58698;BME280;44475;53.206;-6.106;2023-02-21T03:23:16;101667.72;;;23.87;45.31
58698;BME280;44475;53.206;-6.106;2023-02-21T03:25:45;101664.84;;;23.77;45.43
58698;BME280;44475;53.206;-6.106;2023-02-21T03:28:13;101667.06;;;23.83;45.21
58698;BME280;44475;53.206;-6.106;2023-02-21T03:30:43;101667.19;;;23.82;45.14
58698;BME280;44475;53.206;-6.106;2023-02-21T03:33:11;101656.50;;;23.90;44.74
58698;BME280;44475;53.206;-6.106;2023-02-21T03:35:38;101666.22;;;23.83;45.19
58698;BME280;44475;53.206;-6.106;2023-02-21T03:38:05;101661.50;;;23.85;44.93
58698;BME280;44475;53.206;-6.106;2023-02-21T03:40:33;101655.28;;;23.94;44.86
58698;BME280;44475;53.206;-6.106;2023-02-21T03:43:02;101651.69;;;23.94;44.91
58698;BME280;44475;53.206;-6.106;2023-02-21T03:45:34;101657.22;;;23.81;45.02
58698;BME280;44475;53.206;-6.106;2023-02-21T03:48:07;101651.38;;;23.74;45.20
58698;BME280;44475;53.206;-6.106;2023-02-21T03:50:35;101646.28;;;23.81;45.21
58698;BME280;44475;53.206;-6.106;2023-02-21T03:53:02;101626.03;;;23.58;45.14
58698;BME280;44475;53.206;-6.106;2023-02-21T03:55:30;101642.34;;;23.85;45.02
58698;BME280;44475;53.206;-6.106;2023-02-21T03:57:57;101636.34;;;23.79;44.96
58698;BME280;44475;53.206;-6.106;2023-02-21T04:00:24;101636.34;;;23.79;45.20
58698;BME280;44475;53.206;-6.106;2023-02-21T04:02:53;101626.28;;;23.92;44.83
58698;BME280;44475;53.206;-6.106;2023-02-21T04:05:33;101621.31;;;23.85;45.04
58698;BME280;44475;53.206;-6.106;2023-02-21T04:07:59;101618.31;;;23.77;44.96
58698;BME280;44475;53.206;-6.106;2023-02-21T04:10:26;101618.44;;;23.75;45.23
58698;BME280;44475;53.206;-6.106;2023-02-21T04:12:54;101614.22;;;23.83;45.02
58698;BME280;44475;53.206;-6.106;2023-02-21T04:15:20;101610.34;;;23.74;45.23
58698;BME280;44475;53.206;-6.106;2023-02-21T04:17:46;101608.34;;;23.76;45.08
58698;BME280;44475;53.206;-6.106;2023-02-21T04:20:14;101609.97;;;23.78;45.16
58698;BME280;44475;53.206;-6.106;2023-02-21T04:22:45;101605.00;;;23.84;44.84
58698;BME280;44475;53.206;-6.106;2023-02-21T04:25:14;101602.47;;;23.69;45.33
58698;BME280;44475;53.206;-6.106;2023-02-21T04:27:47;101606.34;;;23.66;45.29
58698;BME280;44475;53.206;-6.106;2023-02-21T04:30:14;101608.25;;;23.77;45.11
58698;BME280;44475;53.206;-6.106;2023-02-21T04:32:40;101594.19;;;23.82;44.99
58698;BME280;44475;53.206;-6.106;2023-02-21T04:35:11;101590.97;;;23.88;44.84
58698;BME280;44475;53.206;-6.106;2023-02-21T04:37:37;101592.06;;;23.74;44.99
58698;BME280;44475;53.206;-6.106;2023-02-21T04:40:04;101580.25;;;23.74;45.24
58698;BME280;44475;53.206;-6.106;2023-02-21T04:42:33;101580.63;;;23.81;44.98
58698;BME280;44475;53.206;-6.106;2023-02-21T04:44:59;101581.75;;;23.78;45.00
58698;BME280;44475;53.206;-6.106;2023-02-21T04:47:26;101585.47;;;23.77;44.97
58698;BME280;44475;53.206;-6.106;2023-02-21T04:49:52;101579.50;;;23.72;45.30
58698;BME280;44475;53.206;-6.106;2023-02-21T04:52:18;101580.00;;;23.77;45.03
58698;BME280;44475;53.206;-6.106;2023-02-21T04:54:48;101577.00;;;23.80;44.97
58698;BME280;44475;53.206;-6.106;2023-02-21T04:57:15;101575.25;;;23.79;45.11
58698;BME280;44475;53.206;-6.106;2023-02-21T04:59:42;101585.47;;;23.77;45.27
58698;BME280;44475;53.206;-6.106;2023-02-21T05:02:08;101574.00;;;23.72;45.06
58698;BME280;44475;53.206;-6.106;2023-02-21T05:04:35;101570.78;;;23.66;45.21
58698;BME280;44475;53.206;-6.106;2023-02-21T05:07:02;101569.91;;;23.66;45.46
58698;BME280;44475;53.206;-6.106;2023-02-21T05:09:29;101574.03;;;23.83;45.05
58698;BME280;44475;53.206;-6.106;2023-02-21T05:11:55;101565.16;;;23.68;45.29
58698;BME280;44475;53.206;-6.106;2023-02-21T05:14:22;101558.13;;;23.77;45.02
58698;BME280;44475;53.206;-6.106;2023-02-21T05:16:48;101562.44;;;23.79;44.96
58698;BME280;44475;53.206;-6.106;2023-02-21T05:19:19;101562.84;;;23.75;45.08
58698;BME280;44475;53.206;-6.106;2023-02-21T05:21:56;101555.84;;;23.71;45.01
58698;BME280;44475;53.206;-6.106;2023-02-21T05:24:23;101549.91;;;23.77;45.06
58698;BME280;44475;53.206;-6.106;2023-02-21T05:26:50;101553.13;;;23.71;45.12
58698;BME280;44475;53.206;-6.106;2023-02-21T05:29:17;101555.50;;;23.75;45.17
58698;BME280;44475;53.206;-6.106;2023-02-21T05:31:44;101558.47;;;23.72;45.17
58698;BME280;44475;53.206;-6.106;2023-02-21T05:34:10;101544.63;;;23.62;45.27
58698;BME280;44475;53.206;-6.106;2023-02-21T05:36:37;101544.41;;;23.65;45.17
58698;BME280;44475;53.206;-6.106;2023-02-21T05:39:04;101549.16;;;23.75;45.20
58698;BME280;44475;53.206;-6.106;2023-02-21T05:41:31;101549.03;;;23.65;45.17
58698;BME280;44475;53.206;-6.106;2023-02-21T05:43:57;101540.44;;;23.81;44.96
58698;BME280;44475;53.206;-6.106;2023-02-21T05:46:26;101548.53;;;23.71;45.03
58698;BME280;44475;53.206;-6.106;2023-02-21T05:48:54;101541.81;;;23.75;44.98
58698;BME280;44475;53.206;-6.106;2023-02-21T05:51:21;101545.28;;;23.66;45.13
58698;BME280;44475;53.206;-6.106;2023-02-21T05:53:48;101542.44;;;23.67;45.10
58698;BME280;44475;53.206;-6.106;2023-02-21T05:56:15;101533.72;;;23.74;45.06
58698;BME280;44475;53.206;-6.106;2023-02-21T05:58:41;101528.91;;;23.77;45.00
58698;BME280;44475;53.206;-6.106;2023-02-21T06:01:08;101532.09;;;23.71;45.13
58698;BME280;44475;53.206;-6.106;2023-02-21T06:03:34;101530.47;;;23.57;45.53
58698;BME280;44475;53.206;-6.106;2023-02-21T06:06:01;101517.81;;;23.67;45.15
58698;BME280;44475;53.206;-6.106;2023-02-21T06:08:27;101516.78;;;23.68;44.94
58698;BME280;44475;53.206;-6.106;2023-02-21T06:10:53;101524.53;;;23.63;45.36
58698;BME280;44475;53.206;-6.106;2023-02-21T06:13:19;101519.50;;;23.57;45.53
58698;BME280;44475;53.206;-6.106;2023-02-21T06:15:46;101509.63;;;23.67;45.21
58698;BME280;44475;53.206;-6.106;2023-02-21T06:18:16;101511.84;;;23.74;44.89
58698;BME280;44475;53.206;-6.106;2023-02-21T06:20:43;101506.25;;;23.75;44.86
58698;BME280;44475;53.206;-6.106;2023-02-21T06:23:09;101498.13;;;23.62;44.92
58698;BME280;44475;53.206;-6.106;2023-02-21T06:25:36;101494.91;;;23.68;45.13
58698;BME280;44475;53.206;-6.106;2023-02-21T06:28:02;101495.75;;;23.57;45.17
58698;BME280;44475;53.206;-6.106;2023-02-21T06:30:28;101495.00;;;23.55;45.15
58698;BME280;44475;53.206;-6.106;2023-02-21T06:32:54;101498.66;;;23.67;45.08
58698;BME280;44475;53.206;-6.106;2023-02-21T06:35:21;101502.66;;;23.75;44.87
58698;BME280;44475;53.206;-6.106;2023-02-21T06:37:47;101504.25;;;23.66;45.11
58698;BME280;44475;53.206;-6.106;2023-02-21T06:40:13;101496.28;;;23.63;45.31
58698;BME280;44475;53.206;-6.106;2023-02-21T06:42:39;101491.44;;;23.66;45.06
58698;BME280;44475;53.206;-6.106;2023-02-21T06:45:06;101487.09;;;23.64;45.03
58698;BME280;44475;53.206;-6.106;2023-02-21T06:47:32;101497.88;;;23.54;45.54
58698;BME280;44475;53.206;-6.106;2023-02-21T06:49:59;101492.44;;;23.65;45.09
58698;BME280;44475;53.206;-6.106;2023-02-21T06:52:25;101492.44;;;23.65;45.15
58698;BME280;44475;53.206;-6.106;2023-02-21T06:54:51;101489.09;;;23.73;44.95
58698;BME280;44475;53.206;-6.106;2023-02-21T06:57:18;101482.59;;;23.63;45.38
58698;BME280;44475;53.206;-6.106;2023-02-21T06:59:44;101483.47;;;23.63;44.94
58698;BME280;44475;53.206;-6.106;2023-02-21T07:02:17;101482.69;;;23.61;44.94
58698;BME280;44475;53.206;-6.106;2023-02-21T07:04:44;101484.84;;;23.69;45.22
58698;BME280;44475;53.206;-6.106;2023-02-21T07:07:11;101485.44;;;23.61;44.93
58698;BME280;44475;53.206;-6.106;2023-02-21T07:09:38;101488.56;;;23.68;44.97
58698;BME280;44475;53.206;-6.106;2023-02-21T07:12:04;101476.16;;;23.64;44.97
58698;BME280;44475;53.206;-6.106;2023-02-21T07:14:31;101473.84;;;23.57;45.39
58698;BME280;44475;53.206;-6.106;2023-02-21T07:16:57;101477.63;;;23.56;45.26
58698;BME280;44475;53.206;-6.106;2023-02-21T07:19:23;101474.16;;;23.66;45.22
58698;BME280;44475;53.206;-6.106;2023-02-21T07:21:49;101474.16;;;23.66;44.71
58698;BME280;44475;53.206;-6.106;2023-02-21T07:24:16;101478.09;;;23.62;45.10
58698;BME280;44475;53.206;-6.106;2023-02-21T07:26:42;101474.41;;;23.63;45.27
58698;BME280;44475;53.206;-6.106;2023-02-21T07:29:08;101471.13;;;23.57;45.34
58698;BME280;44475;53.206;-6.106;2023-02-21T07:31:35;101472.75;;;23.60;45.33
58698;BME280;44475;53.206;-6.106;2023-02-21T07:34:01;101471.31;;;23.67;44.86
58698;BME280;44475;53.206;-6.106;2023-02-21T07:36:27;101465.22;;;23.75;44.92
58698;BME280;44475;53.206;-6.106;2023-02-21T07:38:53;101466.94;;;23.76;44.82
58698;BME280;44475;53.206;-6.106;2023-02-21T07:41:20;101466.19;;;23.74;44.98
58698;BME280;44475;53.206;-6.106;2023-02-21T07:43:46;101469.56;;;23.78;44.77
58698;BME280;44475;53.206;-6.106;2023-02-21T07:46:14;101470.81;;;23.74;44.81
58698;BME280;44475;53.206;-6.106;2023-02-21T07:48:40;101480.38;;;23.79;44.72
58698;BME280;44475;53.206;-6.106;2023-02-21T07:51:08;101469.28;;;23.81;44.65
58698;BME280;44475;53.206;-6.106;2023-02-21T07:53:35;101471.66;;;23.63;45.05
58698;BME280;44475;53.206;-6.106;2023-02-21T07:56:03;101476.03;;;23.77;44.60
58698;BME280;44475;53.206;-6.106;2023-02-21T07:58:29;101476.41;;;23.84;44.33
58698;BME280;44475;53.206;-6.106;2023-02-21T08:00:57;101472.91;;;23.70;44.74
58698;BME280;44475;53.206;-6.106;2023-02-21T08:03:23;101470.81;;;23.74;44.70
58698;BME280;44475;53.206;-6.106;2023-02-21T08:05:49;101465.56;;;23.71;44.53
58698;BME280;44475;53.206;-6.106;2023-02-21T08:08:16;101473.75;;;23.59;44.89
58698;BME280;44475;53.206;-6.106;2023-02-21T08:10:42;101458.94;;;23.62;44.63
58698;BME280;44475;53.206;-6.106;2023-02-21T08:13:08;101468.25;;;23.59;44.72
58698;BME280;44475;53.206;-6.106;2023-02-21T08:15:34;101468.25;;;23.59;44.95
58698;BME280;44475;53.206;-6.106;2023-02-21T08:18:01;101463.81;;;23.69;44.85
58698;BME280;44475;53.206;-6.106;2023-02-21T08:20:27;101466.53;;;23.58;44.70
58698;BME280;44475;53.206;-6.106;2023-02-21T08:22:53;101458.34;;;23.69;44.39
58698;BME280;44475;53.206;-6.106;2023-02-21T08:25:19;101456.34;;;23.60;44.57
58698;BME280;44475;53.206;-6.106;2023-02-21T08:27:46;101456.72;;;23.55;44.96
58698;BME280;44475;53.206;-6.106;2023-02-21T08:30:15;101456.59;;;23.57;44.79
58698;BME280;44475;53.206;-6.106;2023-02-21T08:32:41;101456.19;;;23.50;45.01
58698;BME280;44475;53.206;-6.106;2023-02-21T08:35:13;101456.84;;;23.54;44.90
58698;BME280;44475;53.206;-6.106;2023-02-21T08:37:42;101449.25;;;23.57;44.78
58698;BME280;44475;53.206;-6.106;2023-02-21T08:40:10;101447.66;;;23.55;45.05
58698;BME280;44475;53.206;-6.106;2023-02-21T08:42:37;101450.38;;;23.55;45.03
58698;BME280;44475;53.206;-6.106;2023-02-21T08:45:03;101450.63;;;23.52;44.85
58698;BME280;44475;53.206;-6.106;2023-02-21T08:47:33;101452.41;;;23.64;44.53
58698;BME280;44475;53.206;-6.106;2023-02-21T08:49:59;101463.81;;;23.69;44.57
58698;BME280;44475;53.206;-6.106;2023-02-21T08:52:25;101452.41;;;23.64;44.79
58698;BME280;44475;53.206;-6.106;2023-02-21T08:54:51;101457.81;;;23.53;44.94
58698;BME280;44475;53.206;-6.106;2023-02-21T08:57:18;101454.00;;;23.55;44.85
58698;BME280;44475;53.206;-6.106;2023-02-21T08:59:45;101453.13;;;23.55;45.01
58698;BME280;44475;53.206;-6.106;2023-02-21T09:02:16;101453.00;;;23.56;44.81
58698;BME280;44475;53.206;-6.106;2023-02-21T09:04:43;101451.63;;;23.62;44.57
58698;BME280;44475;53.206;-6.106;2023-02-21T09:07:15;101442.44;;;23.63;44.47
58698;BME280;44475;53.206;-6.106;2023-02-21T09:09:42;101449.16;;;23.71;44.46
58698;BME280;44475;53.206;-6.106;2023-02-21T09:12:09;101455.34;;;23.61;44.77
58698;BME280;44475;53.206;-6.106;2023-02-21T09:14:39;101450.75;;;23.62;44.56
58698;BME280;44475;53.206;-6.106;2023-02-21T09:17:08;101451.13;;;23.57;44.91
58698;BME280;44475;53.206;-6.106;2023-02-21T09:19:35;101449.66;;;23.64;44.38
58698;BME280;44475;53.206;-6.106;2023-02-21T09:22:02;101448.00;;;23.62;44.74
58698;BME280;44475;53.206;-6.106;2023-02-21T09:24:29;101442.66;;;23.60;44.61
58698;BME280;44475;53.206;-6.106;2023-02-21T09:26:57;101449.00;;;23.61;44.52
58698;BME280;44475;53.206;-6.106;2023-02-21T09:29:24;101443.75;;;23.57;44.72
58698;BME280;44475;53.206;-6.106;2023-02-21T09:31:51;101440.91;;;23.59;44.55
58698;BME280;44475;53.206;-6.106;2023-02-21T09:34:17;101435.94;;;23.53;44.76
58698;BME280;44475;53.206;-6.106;2023-02-21T09:36:44;101434.72;;;23.68;44.52
58698;BME280;44475;53.206;-6.106;2023-02-21T09:39:13;101431.00;;;23.69;44.37
58698;BME280;44475;53.206;-6.106;2023-02-21T09:41:40;101431.13;;;23.68;44.46
58698;BME280;44475;53.206;-6.106;2023-02-21T09:44:20;101423.50;;;23.60;44.52
58698;BME280;44475;53.206;-6.106;2023-02-21T09:46:57;101416.41;;;23.57;44.90
58698;BME280;44475;53.206;-6.106;2023-02-21T09:49:38;101411.22;;;23.54;44.74
58698;BME280;44475;53.206;-6.106;2023-02-21T09:52:12;101410.94;;;23.57;44.79
58698;BME280;44475;53.206;-6.106;2023-02-21T09:54:46;101404.63;;;23.68;44.61
58698;BME280;44475;53.206;-6.106;2023-02-21T09:57:17;101409.09;;;23.46;45.13
58698;BME280;44475;53.206;-6.106;2023-02-21T09:59:44;101405.50;;;23.46;45.01
58698;BME280;44475;53.206;-6.106;2023-02-21T10:07:46;101391.09;;;23.67;44.88
58698;BME280;44475;53.206;-6.106;2023-02-21T10:20:52;101376.66;;;23.76;44.40
58698;BME280;44475;53.206;-6.106;2023-02-21T10:26:04;101374.03;;;23.75;44.54
58698;BME280;44475;53.206;-6.106;2023-02-21T10:28:35;101371.53;;;23.60;44.71
58698;BME280;44475;53.206;-6.106;2023-02-21T10:31:10;101364.84;;;23.53;45.30
58698;BME280;44475;53.206;-6.106;2023-02-21T10:33:38;101355.00;;;23.62;44.99
58698;BME280;44475;53.206;-6.106;2023-02-21T10:36:16;101354.25;;;23.59;44.99
58698;BME280;44475;53.206;-6.106;2023-02-21T10:38:52;101353.13;;;23.62;44.89
58698;BME280;44475;53.206;-6.106;2023-02-21T10:41:21;101352.53;;;23.47;45.33
58698;BME280;44475;53.206;-6.106;2023-02-21T10:43:51;101349.19;;;23.55;44.95
58698;BME280;44475;53.206;-6.106;2023-02-21T10:46:29;101353.91;;;23.76;44.87
58698;BME280;44475;53.206;-6.106;2023-02-21T10:49:24;101339.34;;;23.75;44.76
58698;BME280;44475;53.206;-6.106;2023-02-21T10:52:09;101339.59;;;23.61;45.11
58698;BME280;44475;53.206;-6.106;2023-02-21T10:54:36;101331.50;;;23.59;44.96
58698;BME280;44475;53.206;-6.106;2023-02-21T10:57:04;101330.03;;;23.78;44.52
58698;BME280;44475;53.206;-6.106;2023-02-21T10:59:37;101333.00;;;23.75;44.75
58698;BME280;44475;53.206;-6.106;2023-02-21T11:02:30;101326.25;;;23.79;44.60
58698;BME280;44475;53.206;-6.106;2023-02-21T11:05:08;101320.06;;;23.77;44.78
58698;BME280;44475;53.206;-6.106;2023-02-21T11:07:36;101316.06;;;23.58;45.28
58698;BME280;44475;53.206;-6.106;2023-02-21T11:10:33;101311.88;;;23.65;44.83
58698;BME280;44475;53.206;-6.106;2023-02-21T11:15:32;101304.03;;;23.72;44.88
58698;BME280;44475;53.206;-6.106;2023-02-21T11:20:36;101302.16;;;23.61;45.01
58698;BME280;44475;53.206;-6.106;2023-02-21T11:23:03;101305.91;;;23.72;45.05
58698;BME280;44475;53.206;-6.106;2023-02-21T11:25:40;101298.91;;;23.79;44.79
58698;BME280;44475;53.206;-6.106;2023-02-21T11:28:27;101299.19;;;23.76;44.97
58698;BME280;44475;53.206;-6.106;2023-02-21T11:31:14;101295.47;;;23.65;45.06
58698;BME280;44475;53.206;-6.106;2023-02-21T11:33:49;101287.41;;;23.64;45.06
58698;BME280;44475;53.206;-6.106;2023-02-21T11:36:18;101282.28;;;23.71;45.38
58698;BME280;44475;53.206;-6.106;2023-02-21T11:41:47;101283.25;;;23.69;45.25
58698;BME280;44475;53.206;-6.106;2023-02-21T11:44:27;101272.19;;;23.71;45.31
58698;BME280;44475;53.206;-6.106;2023-02-21T11:47:33;101271.94;;;23.74;45.00
58698;BME280;44475;53.206;-6.106;2023-02-21T11:50:06;101267.63;;;23.93;44.57
58698;BME280;44475;53.206;-6.106;2023-02-21T11:55:25;101260.88;;;23.76;45.25
58698;BME280;44475;53.206;-6.106;2023-02-21T12:01:01;101253.28;;;24.01;44.71
58698;BME280;44475;53.206;-6.106;2023-02-21T12:25:04;101214.75;;;23.71;45.87
58698;BME280;44475;53.206;-6.106;2023-02-21T12:27:53;101223.94;;;23.70;45.94
58698;BME280;44475;53.206;-6.106;2023-02-21T12:31:36;101217.78;;;23.56;46.15
58698;BME280;44475;53.206;-6.106;2023-02-21T12:41:58;101209.31;;;24.14;45.29
58698;BME280;44475;53.206;-6.106;2023-02-21T12:47:19;101208.00;;;24.52;44.60
58698;BME280;44475;53.206;-6.106;2023-02-21T12:52:43;101211.09;;;25.10;43.09
58698;BME280;44475;53.206;-6.106;2023-02-21T12:55:39;101179.91;;;25.01;42.91
58698;BME280;44475;53.206;-6.106;2023-02-21T12:58:29;101206.66;;;25.19;43.08
58698;BME280;44475;53.206;-6.106;2023-02-21T13:01:35;101207.69;;;25.18;42.71
58698;BME280;44475;53.206;-6.106;2023-02-21T13:04:21;101208.28;;;25.22;42.89
58698;BME280;44475;53.206;-6.106;2023-02-21T13:07:07;101204.19;;;25.16;42.58
58698;BME280;44475;53.206;-6.106;2023-02-21T13:09:49;101200.31;;;25.18;42.87
58698;BME280;44475;53.206;-6.106;2023-02-21T13:12:57;101195.69;;;25.19;43.02
58698;BME280;44475;53.206;-6.106;2023-02-21T13:15:29;101193.69;;;25.21;42.73
58698;BME280;44475;53.206;-6.106;2023-02-21T13:18:00;101191.69;;;25.23;42.46
58698;BME280;44475;53.206;-6.106;2023-02-21T13:20:55;101183.16;;;25.26;42.58
58698;BME280;44475;53.206;-6.106;2023-02-21T13:26:49;101169.31;;;25.28;42.77
58698;BME280;44475;53.206;-6.106;2023-02-21T13:29:24;101170.16;;;25.28;42.54
58698;BME280;44475;53.206;-6.106;2023-02-21T13:31:59;101162.53;;;25.32;42.58
58698;BME280;44475;53.206;-6.106;2023-02-21T13:34:38;101170.63;;;25.34;42.64
58698;BME280;44475;53.206;-6.106;2023-02-21T13:37:11;101148.69;;;25.34;42.55
58698;BME280;44475;53.206;-6.106;2023-02-21T13:39:44;101152.16;;;25.36;42.57
58698;BME280;44475;53.206;-6.106;2023-02-21T13:42:23;101146.66;;;25.36;42.73
58698;BME280;44475;53.206;-6.106;2023-02-21T13:53:32;101126.75;;;25.34;42.61
58698;BME280;44475;53.206;-6.106;2023-02-21T13:58:33;101107.22;;;25.37;42.88
58698;BME280;44475;53.206;-6.106;2023-02-21T14:03:48;101108.81;;;25.40;42.64
58698;BME280;44475;53.206;-6.106;2023-02-21T14:06:37;101101.34;;;25.42;42.63
58698;BME280;44475;53.206;-6.106;2023-02-21T14:09:11;101096.72;;;25.42;42.79
58698;BME280;44475;53.206;-6.106;2023-02-21T14:11:49;101085.88;;;25.41;42.67
58698;BME280;44475;53.206;-6.106;2023-02-21T14:14:33;101086.16;;;25.47;42.52
58698;BME280;44475;53.206;-6.106;2023-02-21T14:17:02;101091.50;;;25.49;42.69
58698;BME280;44475;53.206;-6.106;2023-02-21T14:19:48;101087.88;;;25.48;42.58
58698;BME280;44475;53.206;-6.106;2023-02-21T14:22:30;101086.59;;;25.43;42.89
58698;BME280;44475;53.206;-6.106;2023-02-21T14:25:18;101086.16;;;25.47;42.51
58698;BME280;44475;53.206;-6.106;2023-02-21T14:27:46;101074.91;;;25.51;42.51
58698;BME280;44475;53.206;-6.106;2023-02-21T14:30:29;101078.22;;;25.54;42.54
58698;BME280;44475;53.206;-6.106;2023-02-21T14:33:33;101080.09;;;25.54;42.49
58698;BME280;44475;53.206;-6.106;2023-02-21T14:36:03;101072.59;;;25.56;42.42
58698;BME280;44475;53.206;-6.106;2023-02-21T14:38:37;101070.41;;;25.50;42.67
58698;BME280;44475;53.206;-6.106;2023-02-21T14:41:31;101070.41;;;25.50;42.39
58698;BME280;44475;53.206;-6.106;2023-02-21T14:53:01;101043.31;;;25.36;43.12
58698;BME280;44475;53.206;-6.106;2023-02-21T15:01:40;101034.63;;;25.01;43.54
58698;BME280;44475;53.206;-6.106;2023-02-21T15:12:53;101033.13;;;24.67;44.36
58698;BME280;44475;53.206;-6.106;2023-02-21T15:18:04;101024.38;;;25.13;43.29
58698;BME280;44475;53.206;-6.106;2023-02-21T15:20:34;101026.41;;;24.91;43.65
58698;BME280;44475;53.206;-6.106;2023-02-21T15:23:10;101032.16;;;25.08;43.21
58698;BME280;44475;53.206;-6.106;2023-02-21T15:25:37;101020.06;;;25.11;43.25
58698;BME280;44475;53.206;-6.106;2023-02-21T15:28:12;101013.97;;;24.97;43.48
58698;BME280;44475;53.206;-6.106;2023-02-21T15:30:58;101021.78;;;25.02;43.52
58698;BME280;44475;53.206;-6.106;2023-02-21T15:33:26;101025.22;;;24.74;44.28
58698;BME280;44475;53.206;-6.106;2023-02-21T15:36:19;101014.56;;;24.91;43.87
58698;BME280;44475;53.206;-6.106;2023-02-21T15:38:48;101012.84;;;25.10;43.39